Terminal Aerodrome Forecast
Issued by NWS

Home | Current Version | Previous Version | Text Only | Print | Product List | Glossary On
Versions: 1 2 3 4 5 6 7 8 9 10 11 12 13 14 15 16 17 18 19 20 21 22 23 24 25 26 27 28 29 30 31
000
FTUS44 KHGX 171752 CCA
TAFIAH
TAF COR
KIAH 171752Z 1718/1824 27005KT P6SM VCSH FEW010 BKN015 OVC030
      TEMPO 1718/1721 5SM -RA BR BKN010
     FM172100 34005KT P6SM VCSH BKN030
      TEMPO 1723/1802 6SM -RA BR BKN010
     FM180200 02006KT P6SM OVC020
     FM180900 06005KT P6SM OVC008
     FM181600 12005KT P6SM OVC015=

USA.gov is the U.S. government's official web portal to all federal, state and local government web resources and services.